createdAt,value
2019-05-25T00:01:20.194Z,99.90
2019-05-25T00:03:47.375Z,99.90
2019-05-25T00:06:14.557Z,99.90
2019-05-25T00:08:41.560Z,99.90
2019-05-25T00:11:08.701Z,99.90
2019-05-25T00:13:35.897Z,99.90
2019-05-25T00:16:03.159Z,99.90
2019-05-25T00:18:30.662Z,99.90
2019-05-25T00:20:57.811Z,99.90
2019-05-25T00:23:24.921Z,99.90
2019-05-25T00:25:52.132Z,99.90
2019-05-25T00:28:19.283Z,99.90
2019-05-25T00:30:46.946Z,99.90
2019-05-25T00:33:14.275Z,99.90
2019-05-25T00:35:42.560Z,99.90
2019-05-25T00:38:09.574Z,99.90
2019-05-25T00:40:36.707Z,99.90
2019-05-25T00:43:04.337Z,99.90
2019-05-25T00:45:31.375Z,99.90
2019-05-25T00:47:58.714Z,99.90
2019-05-25T00:50:25.821Z,99.90
2019-05-25T00:52:53.002Z,99.90
2019-05-25T00:55:20.090Z,99.90
2019-05-25T00:57:47.634Z,99.90
2019-05-25T01:00:15.240Z,99.90
2019-05-25T01:02:42.469Z,99.90
2019-05-25T01:05:09.746Z,99.90
2019-05-25T01:07:36.999Z,99.90
2019-05-25T01:10:05.241Z,99.90
2019-05-25T01:12:32.261Z,99.90
2019-05-25T01:14:59.504Z,99.90
2019-05-25T01:17:26.805Z,99.90
2019-05-25T01:19:53.975Z,99.90
2019-05-25T01:22:21.049Z,99.90
2019-05-25T01:24:48.183Z,99.90
2019-05-25T01:27:15.618Z,99.90
2019-05-25T01:29:42.748Z,99.90
2019-05-25T01:32:10.027Z,99.90
2019-05-25T01:34:37.130Z,99.90
2019-05-25T01:37:04.367Z,99.90
2019-05-25T01:39:31.621Z,99.90
2019-05-25T01:41:58.889Z,99.90
2019-05-25T01:44:26.454Z,99.90
2019-05-25T01:46:53.720Z,99.90
2019-05-25T01:49:20.822Z,99.90
2019-05-25T01:51:47.870Z,99.90
2019-05-25T01:54:15.287Z,99.90
2019-05-25T01:56:42.909Z,99.90
2019-05-25T01:59:10.331Z,99.90
2019-05-25T02:01:37.452Z,99.90
2019-05-25T02:04:05.650Z,99.90
2019-05-25T02:06:32.885Z,99.90
2019-05-25T02:09:00.221Z,99.90
2019-05-25T02:11:27.476Z,99.90
2019-05-25T02:13:54.907Z,99.90
2019-05-25T02:16:22.066Z,99.90
2019-05-25T02:18:49.175Z,99.90
2019-05-25T02:21:16.253Z,99.90
2019-05-25T02:23:43.455Z,99.90
2019-05-25T02:26:10.703Z,99.90
2019-05-25T02:28:38.486Z,99.90
2019-05-25T02:31:05.622Z,99.90
2019-05-25T02:33:32.831Z,99.90
2019-05-25T02:36:00.136Z,99.90
2019-05-25T02:38:27.275Z,99.90
2019-05-25T02:40:54.787Z,99.90
2019-05-25T02:43:21.977Z,99.90
2019-05-25T02:45:49.155Z,99.90
2019-05-25T02:48:16.387Z,99.90
2019-05-25T02:50:44.630Z,99.90
2019-05-25T02:53:11.977Z,99.90
2019-05-25T02:55:39.118Z,99.90
2019-05-25T02:58:06.466Z,99.90
2019-05-25T03:00:34.062Z,99.90
2019-05-25T03:03:01.827Z,99.90
2019-05-25T03:05:29.087Z,99.90
2019-05-25T03:07:56.816Z,99.90
2019-05-25T03:10:24.063Z,99.90
2019-05-25T03:12:51.777Z,99.90
2019-05-25T03:15:19.037Z,99.90
2019-05-25T03:17:46.276Z,99.90
2019-05-25T03:20:14.423Z,99.90
2019-05-25T03:22:41.778Z,99.90
2019-05-25T03:25:09.042Z,99.90
2019-05-25T03:27:36.194Z,99.90
2019-05-25T03:30:05.016Z,99.90
2019-05-25T03:32:32.158Z,99.90
2019-05-25T03:34:59.314Z,99.90
2019-05-25T03:37:26.470Z,99.90
2019-05-25T03:39:53.583Z,99.90
2019-05-25T03:42:20.771Z,99.90
2019-05-25T03:44:47.891Z,99.90
2019-05-25T03:47:14.903Z,99.90
2019-05-25T03:49:41.986Z,99.90
2019-05-25T03:52:09.215Z,99.90
2019-05-25T03:54:36.348Z,99.90
2019-05-25T03:57:03.591Z,99.90
2019-05-25T03:59:30.784Z,99.90
2019-05-25T04:01:57.910Z,99.90
2019-05-25T04:04:25.028Z,99.90
2019-05-25T04:06:52.274Z,99.90
2019-05-25T04:09:19.399Z,99.90
2019-05-25T04:11:46.628Z,99.90
2019-05-25T04:14:13.886Z,99.90
2019-05-25T04:16:41.127Z,99.90
2019-05-25T04:19:08.202Z,99.90
2019-05-25T04:21:35.504Z,99.90
2019-05-25T04:24:03.051Z,99.90
2019-05-25T04:26:31.176Z,99.90
2019-05-25T04:28:58.464Z,99.90
2019-05-25T04:31:25.832Z,99.90
2019-05-25T04:33:53.282Z,99.90
2019-05-25T04:36:20.595Z,99.90
2019-05-25T04:38:47.767Z,99.90
2019-05-25T04:41:15.026Z,99.90
2019-05-25T04:43:42.129Z,99.90
2019-05-25T04:46:09.335Z,99.90
2019-05-25T04:48:36.483Z,99.90
2019-05-25T04:51:03.745Z,99.90
2019-05-25T04:53:31.206Z,99.90
2019-05-25T04:55:58.390Z,99.90
2019-05-25T04:58:25.547Z,99.90
2019-05-25T05:00:53.144Z,99.90
2019-05-25T05:03:20.259Z,99.90
2019-05-25T05:05:47.298Z,99.90
2019-05-25T05:08:14.471Z,99.90
2019-05-25T05:10:42.139Z,99.90
2019-05-25T05:13:09.370Z,99.90
2019-05-25T05:15:36.575Z,99.90
2019-05-25T05:18:03.895Z,99.90
2019-05-25T05:20:31.094Z,99.90
2019-05-25T05:22:58.216Z,99.90
2019-05-25T05:25:25.478Z,99.90
2019-05-25T05:27:52.511Z,99.90
2019-05-25T05:30:29.881Z,99.90
2019-05-25T05:32:57.316Z,99.90
2019-05-25T05:35:24.539Z,99.90
2019-05-25T05:37:52.014Z,99.90
2019-05-25T05:40:19.345Z,99.90
2019-05-25T05:42:48.191Z,99.90
2019-05-25T05:45:15.390Z,99.90
2019-05-25T05:47:44.602Z,99.90
2019-05-25T05:50:12.116Z,99.90
2019-05-25T05:52:39.278Z,99.90
2019-05-25T05:55:10.701Z,99.90
2019-05-25T05:57:38.083Z,99.90
2019-05-25T06:00:06.133Z,99.90
2019-05-25T06:02:33.218Z,99.90
2019-05-25T06:05:00.427Z,99.90
2019-05-25T06:07:27.704Z,99.90
2019-05-25T06:09:55.135Z,99.90
2019-05-25T06:12:23.797Z,99.90
2019-05-25T06:14:50.960Z,99.90
2019-05-25T06:17:18.417Z,99.90
2019-05-25T06:19:45.607Z,99.90
2019-05-25T06:22:12.838Z,99.90
2019-05-25T06:24:40.201Z,99.90
2019-05-25T06:27:07.475Z,99.90
2019-05-25T06:29:34.959Z,99.90
2019-05-25T06:32:02.283Z,99.90
2019-05-25T06:34:29.531Z,99.90
2019-05-25T06:36:56.786Z,99.90
2019-05-25T06:39:24.670Z,99.90
2019-05-25T06:41:52.171Z,99.90
2019-05-25T06:44:19.556Z,99.90
2019-05-25T06:46:46.574Z,99.90
2019-05-25T06:49:13.707Z,99.90
2019-05-25T06:51:40.971Z,99.90
2019-05-25T06:54:08.247Z,99.90
2019-05-25T06:56:35.404Z,99.90
2019-05-25T06:59:02.650Z,99.90
2019-05-25T07:01:29.847Z,99.90
2019-05-25T07:03:57.014Z,99.90
2019-05-25T07:06:24.167Z,99.90
2019-05-25T07:08:51.295Z,99.90
2019-05-25T07:11:18.438Z,99.90
2019-05-25T07:13:45.664Z,99.90
2019-05-25T07:16:12.826Z,99.90
2019-05-25T07:18:39.983Z,99.90
2019-05-25T07:21:08.229Z,99.90
2019-05-25T07:23:35.344Z,99.90
2019-05-25T07:26:02.602Z,99.90
2019-05-25T07:28:31.178Z,99.90
2019-05-25T07:30:58.368Z,99.90
2019-05-25T07:33:25.939Z,99.90
2019-05-25T07:35:53.409Z,99.90
2019-05-25T07:38:20.643Z,99.90
2019-05-25T07:40:47.935Z,99.90
2019-05-25T07:43:15.222Z,99.90
2019-05-25T07:45:42.640Z,99.90
2019-05-25T07:48:09.824Z,99.90
2019-05-25T07:50:37.103Z,99.90
2019-05-25T07:53:04.376Z,99.90
2019-05-25T07:55:31.897Z,99.90
2019-05-25T07:58:15.289Z,99.90
2019-05-25T08:00:28.226Z,99.90
2019-05-25T08:02:55.339Z,99.90
2019-05-25T08:05:22.395Z,99.90
2019-05-25T08:07:49.775Z,99.90
2019-05-25T08:10:17.324Z,99.90
2019-05-25T08:12:44.240Z,99.90
2019-05-25T08:15:11.856Z,99.90
2019-05-25T08:17:38.883Z,99.90
2019-05-25T08:20:06.317Z,99.90
2019-05-25T08:22:33.379Z,99.90
2019-05-25T08:25:00.410Z,99.90
2019-05-25T08:27:27.352Z,99.90
2019-05-25T08:29:54.276Z,99.90
2019-05-25T08:32:21.231Z,99.90
2019-05-25T08:34:48.138Z,99.90
2019-05-25T08:37:15.030Z,99.90
2019-05-25T08:39:41.962Z,99.90
2019-05-25T08:42:09.237Z,99.90
2019-05-25T08:44:36.167Z,99.90
2019-05-25T08:47:03.252Z,99.90
2019-05-25T08:49:30.304Z,99.90
2019-05-25T08:51:57.221Z,99.90
2019-05-25T08:54:24.132Z,99.90
2019-05-25T08:56:51.371Z,99.90
2019-05-25T08:59:18.387Z,99.90
2019-05-25T09:01:45.354Z,99.90
2019-05-25T09:04:12.444Z,99.90
2019-05-25T09:06:39.334Z,99.90
2019-05-25T09:09:06.630Z,99.90
2019-05-25T09:11:33.640Z,99.90
2019-05-25T09:14:00.575Z,99.20
2019-05-25T09:16:27.441Z,99.40
2019-05-25T09:18:54.447Z,99.90
2019-05-25T09:21:21.321Z,99.10
2019-05-25T09:23:48.926Z,98.70
2019-05-25T09:26:15.988Z,99.00
2019-05-25T09:28:43.004Z,98.00
2019-05-25T09:31:09.861Z,98.10
2019-05-25T09:33:36.873Z,98.40
2019-05-25T09:36:03.956Z,98.20
2019-05-25T09:38:30.888Z,98.90
2019-05-25T09:40:57.821Z,99.50
2019-05-25T09:43:24.892Z,99.30
2019-05-25T09:45:52.818Z,97.80
2019-05-25T09:48:19.763Z,98.30
2019-05-25T09:50:46.648Z,97.40
2019-05-25T09:53:13.979Z,96.90
2019-05-25T09:55:40.886Z,96.70
2019-05-25T09:58:07.896Z,94.70
2019-05-25T10:00:39.738Z,95.60
2019-05-25T10:03:04.097Z,96.10
2019-05-25T10:05:31.186Z,95.80
2019-05-25T10:07:58.298Z,95.60
2019-05-25T10:10:25.481Z,94.70
2019-05-25T10:12:52.452Z,95.30
2019-05-25T10:15:19.589Z,93.00
2019-05-25T10:17:46.754Z,92.10
2019-05-25T10:20:13.925Z,92.60
2019-05-25T10:22:40.882Z,92.40
2019-05-25T10:25:09.085Z,93.00
2019-05-25T10:27:36.169Z,92.80
2019-05-25T10:30:05.874Z,92.70
2019-05-25T10:32:32.901Z,92.60
2019-05-25T10:34:59.894Z,92.70
2019-05-25T10:37:27.063Z,92.50
2019-05-25T10:39:53.998Z,93.70
2019-05-25T10:42:21.249Z,93.60
2019-05-25T10:44:48.147Z,92.80
2019-05-25T10:47:15.029Z,93.60
2019-05-25T10:49:41.947Z,92.70
2019-05-25T10:52:08.819Z,90.30
2019-05-25T10:54:36.060Z,88.10
2019-05-25T10:57:03.193Z,88.70
2019-05-25T10:59:30.155Z,90.90
2019-05-25T11:01:57.163Z,91.50
2019-05-25T11:04:24.141Z,91.70
2019-05-25T11:06:51.039Z,93.00
2019-05-25T11:09:18.049Z,91.80
2019-05-25T11:11:44.956Z,91.40
2019-05-25T11:14:11.960Z,92.20
2019-05-25T11:16:38.847Z,91.90
2019-05-25T11:19:05.846Z,90.60
2019-05-25T11:21:33.074Z,88.20
2019-05-25T11:24:00.053Z,79.10
2019-05-25T11:26:26.953Z,68.80
2019-05-25T11:28:53.857Z,67.90
2019-05-25T11:31:20.820Z,59.00
2019-05-25T11:33:47.820Z,61.70
2019-05-25T11:36:14.755Z,55.80
2019-05-25T11:38:41.670Z,61.10
2019-05-25T11:41:08.659Z,62.40
2019-05-25T11:43:35.559Z,65.30
2019-05-25T11:46:02.653Z,67.30
2019-05-25T11:48:29.549Z,61.60
2019-05-25T11:50:56.463Z,58.40
2019-05-25T11:53:23.358Z,58.50
2019-05-25T11:55:50.367Z,58.90
2019-05-25T11:58:17.230Z,55.40
2019-05-25T12:00:44.313Z,51.20
2019-05-25T12:03:12.253Z,54.00
2019-05-25T12:05:39.294Z,50.80
2019-05-25T12:08:06.288Z,51.10
2019-05-25T12:10:33.243Z,48.70
2019-05-25T12:13:00.763Z,49.80
2019-05-25T12:15:28.036Z,48.30
2019-05-25T12:17:55.102Z,46.60
2019-05-25T12:20:22.200Z,46.40
2019-05-25T12:22:49.187Z,48.80
2019-05-25T12:25:18.197Z,54.00
2019-05-25T12:27:48.868Z,57.20
2019-05-25T12:30:16.674Z,57.80
2019-05-25T12:32:44.279Z,57.00
2019-05-25T12:35:11.738Z,57.40
2019-05-25T12:37:38.614Z,58.40
2019-05-25T12:40:05.943Z,60.40
2019-05-25T12:42:32.928Z,60.50
2019-05-25T12:44:59.975Z,57.10
2019-05-25T12:47:27.093Z,52.90
2019-05-25T12:49:54.219Z,50.20
2019-05-25T12:52:21.228Z,46.20
2019-05-25T12:54:48.142Z,44.80
2019-05-25T12:57:16.558Z,44.00
2019-05-25T12:59:43.530Z,42.90
2019-05-25T13:02:10.461Z,45.50
2019-05-25T13:04:37.490Z,49.20
2019-05-25T13:07:04.638Z,46.80
2019-05-25T13:09:31.658Z,43.90
2019-05-25T13:11:58.698Z,41.20
2019-05-25T13:14:26.207Z,41.90
2019-05-25T13:16:53.141Z,41.20
2019-05-25T13:19:20.043Z,41.80
2019-05-25T13:21:46.932Z,41.10
2019-05-25T13:24:14.252Z,37.50
2019-05-25T13:26:41.261Z,38.40
2019-05-25T13:29:08.152Z,39.20
2019-05-25T13:31:35.347Z,38.90
2019-05-25T13:34:02.422Z,42.50
2019-05-25T13:36:29.378Z,43.40
2019-05-25T13:38:56.432Z,45.30
2019-05-25T13:41:23.390Z,41.90
2019-05-25T13:43:50.380Z,38.60
2019-05-25T13:46:17.379Z,40.10
2019-05-25T13:48:44.493Z,38.50
2019-05-25T13:51:11.510Z,42.60
2019-05-25T13:53:38.644Z,44.20
2019-05-25T13:56:05.616Z,45.40
2019-05-25T13:58:32.516Z,47.40
2019-05-25T14:00:59.490Z,49.00
2019-05-25T14:03:26.889Z,48.10
2019-05-25T14:05:53.951Z,49.40
2019-05-25T14:08:20.987Z,50.20
2019-05-25T14:10:47.872Z,50.90
2019-05-25T14:13:14.774Z,49.30
2019-05-25T14:15:41.826Z,50.30
2019-05-25T14:18:08.734Z,52.70
2019-05-25T14:20:35.666Z,52.60
2019-05-25T14:23:02.630Z,54.10
2019-05-25T14:25:29.547Z,54.40
2019-05-25T14:27:56.427Z,48.50
2019-05-25T14:30:24.597Z,46.30
2019-05-25T14:32:51.481Z,42.50
2019-05-25T14:35:18.504Z,44.70
2019-05-25T14:37:45.467Z,47.30
2019-05-25T14:40:12.548Z,47.50
2019-05-25T14:42:39.654Z,47.80
2019-05-25T14:45:07.409Z,49.70
2019-05-25T14:47:34.432Z,51.10
2019-05-25T14:50:01.489Z,48.20
2019-05-25T14:52:28.497Z,46.40
2019-05-25T14:54:55.490Z,44.70
2019-05-25T14:57:22.361Z,45.10
2019-05-25T14:59:49.314Z,46.50
2019-05-25T15:02:16.238Z,47.10
2019-05-25T15:04:43.193Z,43.40
2019-05-25T15:07:10.155Z,44.80
2019-05-25T15:09:37.589Z,44.90
2019-05-25T15:12:04.953Z,46.80
2019-05-25T15:14:31.830Z,44.30
2019-05-25T15:16:58.953Z,43.20
2019-05-25T15:19:26.582Z,44.00
2019-05-25T15:21:53.848Z,41.40
2019-05-25T15:24:21.116Z,43.90
2019-05-25T15:26:48.055Z,45.10
2019-05-25T15:29:14.970Z,47.90
2019-05-25T15:31:42.024Z,50.90
2019-05-25T15:34:09.020Z,49.40
2019-05-25T15:36:36.173Z,45.70
2019-05-25T15:39:05.761Z,44.90
2019-05-25T15:41:32.640Z,44.70
2019-05-25T15:43:59.540Z,46.10
2019-05-25T15:46:26.426Z,44.00
2019-05-25T15:48:53.314Z,46.30
2019-05-25T15:51:20.185Z,45.30
2019-05-25T15:53:47.073Z,47.40
2019-05-25T15:56:14.034Z,49.40
2019-05-25T15:58:40.993Z,49.10
2019-05-25T16:01:08.098Z,47.10
2019-05-25T16:03:35.072Z,46.20
2019-05-25T16:06:02.019Z,45.50
2019-05-25T16:08:28.905Z,46.20
2019-05-25T16:10:55.870Z,46.40
2019-05-25T16:13:22.844Z,48.50
2019-05-25T16:15:49.988Z,49.50
2019-05-25T16:18:16.957Z,50.20
2019-05-25T16:20:43.897Z,50.50
2019-05-25T16:23:11.188Z,52.90
2019-05-25T16:25:38.515Z,51.80
2019-05-25T16:28:05.408Z,53.20
2019-05-25T16:30:32.496Z,53.40
2019-05-25T16:33:11.726Z,56.80
2019-05-25T16:35:29.216Z,55.10
2019-05-25T16:37:56.330Z,56.30
2019-05-25T16:40:23.736Z,55.20
2019-05-25T16:42:50.641Z,56.20
2019-05-25T16:45:18.063Z,56.10
2019-05-25T16:47:45.089Z,57.90
2019-05-25T16:50:14.840Z,56.20
2019-05-25T16:52:41.669Z,56.90
2019-05-25T16:55:08.797Z,56.60
2019-05-25T16:57:35.831Z,56.30
2019-05-25T17:00:03.754Z,57.00
2019-05-25T17:02:31.168Z,56.10
2019-05-25T17:04:58.302Z,56.60
2019-05-25T17:07:25.391Z,58.50
2019-05-25T17:09:52.561Z,57.00
2019-05-25T17:12:19.574Z,59.30
2019-05-25T17:14:46.780Z,59.50
2019-05-25T17:17:13.905Z,58.10
2019-05-25T17:19:41.331Z,58.80
2019-05-25T17:22:08.476Z,60.70
2019-05-25T17:24:35.672Z,59.60
2019-05-25T17:27:02.973Z,59.90
2019-05-25T17:29:30.293Z,60.70
2019-05-25T17:31:57.564Z,60.00
2019-05-25T17:34:24.858Z,62.90
2019-05-25T17:36:51.935Z,61.80
2019-05-25T17:39:19.080Z,60.70
2019-05-25T17:41:47.292Z,58.90
2019-05-25T17:44:14.446Z,61.80
2019-05-25T17:46:41.728Z,60.50
2019-05-25T17:49:14.990Z,62.20
2019-05-25T17:51:43.381Z,62.00
2019-05-25T17:54:10.599Z,60.60
2019-05-25T17:56:40.373Z,61.70
2019-05-25T17:59:07.821Z,63.30
2019-05-25T18:01:35.082Z,62.30
2019-05-25T18:04:07.328Z,64.00
2019-05-25T18:06:31.469Z,64.70
2019-05-25T18:08:58.601Z,65.80
2019-05-25T18:11:25.727Z,65.10
2019-05-25T18:13:52.999Z,66.10
2019-05-25T18:16:20.137Z,67.90
2019-05-25T18:18:47.666Z,70.70
2019-05-25T18:21:14.926Z,70.90
2019-05-25T18:23:42.167Z,75.00
2019-05-25T18:26:09.516Z,72.50
2019-05-25T18:28:36.732Z,76.30
2019-05-25T18:31:04.055Z,73.00
2019-05-25T18:33:31.410Z,73.70
2019-05-25T18:35:58.707Z,73.50
2019-05-25T18:38:25.945Z,76.50
2019-05-25T18:40:53.572Z,75.00
2019-05-25T18:43:20.950Z,75.10
2019-05-25T18:45:48.194Z,74.60
2019-05-25T18:48:15.345Z,73.90
2019-05-25T18:50:42.659Z,74.80
2019-05-25T18:53:09.881Z,75.20
2019-05-25T18:55:37.454Z,77.80
2019-05-25T18:58:04.684Z,79.70
2019-05-25T19:00:31.960Z,78.60
2019-05-25T19:02:59.278Z,82.30
2019-05-25T19:05:26.412Z,83.00
2019-05-25T19:07:53.511Z,82.80
2019-05-25T19:10:21.048Z,81.70
2019-05-25T19:12:48.303Z,82.40
2019-05-25T19:15:15.967Z,80.90
2019-05-25T19:17:43.549Z,80.80
2019-05-25T19:20:10.956Z,82.30
2019-05-25T19:22:38.204Z,84.30
2019-05-25T19:25:06.406Z,84.20
2019-05-25T19:27:33.453Z,86.70
2019-05-25T19:30:00.567Z,89.10
2019-05-25T19:32:27.623Z,89.30
2019-05-25T19:34:59.706Z,90.40
2019-05-25T19:37:23.684Z,91.40
2019-05-25T19:39:50.779Z,92.90
2019-05-25T19:42:21.098Z,93.80
2019-05-25T19:44:48.436Z,94.30
2019-05-25T19:47:18.742Z,94.90
2019-05-25T19:49:48.586Z,96.40
2019-05-25T19:52:16.971Z,97.70
2019-05-25T19:54:46.167Z,97.80
2019-05-25T19:57:13.961Z,98.80
2019-05-25T19:59:45.014Z,99.50
2019-05-25T20:02:16.649Z,99.30
2019-05-25T20:05:15.845Z,99.70
2019-05-25T20:07:32.641Z,99.90
2019-05-25T20:09:59.554Z,99.90
2019-05-25T20:12:26.781Z,99.90
2019-05-25T20:14:53.651Z,99.90
2019-05-25T20:17:20.906Z,99.90
2019-05-25T20:19:47.844Z,99.90
2019-05-25T20:22:15.236Z,99.90
2019-05-25T20:24:42.291Z,99.90
2019-05-25T20:27:09.464Z,99.90
2019-05-25T20:29:36.525Z,99.90
2019-05-25T20:32:03.674Z,99.90
2019-05-25T20:34:30.598Z,99.90
2019-05-25T20:36:57.534Z,99.90
2019-05-25T20:39:24.552Z,99.90
2019-05-25T20:41:51.701Z,99.90
2019-05-25T20:44:18.968Z,99.90
2019-05-25T20:46:46.239Z,99.90
2019-05-25T20:49:14.443Z,99.90
2019-05-25T20:51:41.829Z,99.90
2019-05-25T20:54:09.341Z,99.90
2019-05-25T20:56:36.539Z,99.90
2019-05-25T20:59:03.918Z,99.90
2019-05-25T21:01:31.119Z,99.90
2019-05-25T21:03:58.284Z,99.90
2019-05-25T21:06:25.692Z,99.90
2019-05-25T21:08:52.829Z,99.90
2019-05-25T21:11:20.058Z,99.90
2019-05-25T21:13:47.374Z,99.90
2019-05-25T21:16:14.674Z,99.90
2019-05-25T21:18:41.864Z,99.90
2019-05-25T21:21:09.113Z,99.90
2019-05-25T21:23:36.435Z,99.90
2019-05-25T21:26:03.663Z,99.90
2019-05-25T21:28:30.878Z,99.90
2019-05-25T21:30:57.985Z,99.90
2019-05-25T21:33:25.164Z,99.90
2019-05-25T21:36:06.697Z,99.90
2019-05-25T21:38:21.531Z,99.90
2019-05-25T21:40:48.826Z,99.90
2019-05-25T21:43:15.979Z,99.90
2019-05-25T21:45:43.216Z,99.90
2019-05-25T21:48:10.495Z,99.90
2019-05-25T21:50:37.553Z,99.90
2019-05-25T21:53:04.783Z,99.90
2019-05-25T21:55:31.772Z,99.90
2019-05-25T21:57:59.055Z,99.90
2019-05-25T22:00:28.693Z,99.90
2019-05-25T22:02:58.921Z,99.90
2019-05-25T22:05:26.113Z,99.90
2019-05-25T22:07:53.338Z,99.90
2019-05-25T22:10:20.709Z,99.90
2019-05-25T22:12:48.029Z,99.90
2019-05-25T22:15:15.557Z,99.90
2019-05-25T22:17:42.804Z,99.90
2019-05-25T22:20:11.547Z,99.90
2019-05-25T22:22:38.922Z,99.90
2019-05-25T22:25:07.729Z,99.90
2019-05-25T22:27:36.078Z,99.90
2019-05-25T22:30:04.146Z,99.90
2019-05-25T22:32:31.371Z,99.90
2019-05-25T22:34:58.565Z,99.90
2019-05-25T22:37:25.796Z,99.90
2019-05-25T22:39:53.072Z,99.90
2019-05-25T22:42:20.634Z,99.90
2019-05-25T22:44:47.851Z,99.90
2019-05-25T22:47:14.913Z,99.90
2019-05-25T22:49:42.450Z,99.90
2019-05-25T22:52:09.728Z,99.90
2019-05-25T22:54:36.787Z,99.90
2019-05-25T22:57:05.024Z,99.90
2019-05-25T22:59:32.306Z,99.90
2019-05-25T23:01:59.674Z,99.90
2019-05-25T23:04:26.934Z,99.90
2019-05-25T23:06:58.221Z,99.90
2019-05-25T23:09:23.360Z,99.90
2019-05-25T23:11:50.607Z,99.90
2019-05-25T23:14:17.629Z,99.90
2019-05-25T23:16:44.672Z,99.90
2019-05-25T23:19:11.875Z,99.90
2019-05-25T23:21:39.541Z,99.90
2019-05-25T23:24:06.594Z,99.90
2019-05-25T23:26:33.924Z,99.90
2019-05-25T23:29:01.149Z,99.90
2019-05-25T23:31:28.372Z,99.90
2019-05-25T23:33:55.684Z,99.90
2019-05-25T23:36:22.937Z,99.90
2019-05-25T23:38:51.154Z,99.90
2019-05-25T23:41:18.359Z,99.90
2019-05-25T23:43:46.736Z,99.90
2019-05-25T23:46:13.989Z,99.90
2019-05-25T23:48:41.755Z,99.90
2019-05-25T23:51:08.926Z,99.90
2019-05-25T23:53:35.925Z,99.90
2019-05-25T23:56:03.084Z,99.90
2019-05-25T23:58:30.119Z,99.90
